Time;durP1;ratioP1;P1;durP2;ratioP2;P2;SDS_P1;SDS_P2;PMS_P1;PMS_P2;Temp;Humidity;BMP_temperature;BMP_pressure;BME280_temperature;BME280_humidity;BME280_pressure;Samples;Min_cycle;Max_cycle;Signal;HPM_P1;HPM_P2
2022/04/11 00:01:30;;;;;;;5.00;3.67;;;3.90;99.90;;;;;;5028655;28;20229;-71
2022/04/11 00:03:56;;;;;;;5.17;3.93;;;3.90;99.90;;;;;;5028833;28;20184;-71
2022/04/11 00:06:22;;;;;;;4.43;3.67;;;3.90;99.90;;;;;;5028613;28;20278;-71
2022/04/11 00:08:47;;;;;;;3.87;2.83;;;4.00;99.90;;;;;;5028603;28;20613;-71
2022/04/11 00:11:13;;;;;;;4.07;3.43;;;4.00;99.90;;;;;;5028577;28;20183;-71
2022/04/11 00:13:39;;;;;;;7.20;4.30;;;4.00;99.90;;;;;;5028487;28;20186;-72
2022/04/11 00:16:07;;;;;;;4.53;3.80;;;4.10;99.90;;;;;;5010728;28;20217;-72
2022/04/11 00:18:33;;;;;;;4.20;3.10;;;4.10;99.90;;;;;;5028566;28;20296;-71
2022/04/11 00:20:59;;;;;;;5.95;3.60;;;4.00;99.90;;;;;;5028397;28;20187;-71
2022/04/11 00:23:25;;;;;;;5.40;3.50;;;4.00;99.90;;;;;;5028525;28;20211;-72
2022/04/11 00:25:51;;;;;;;5.43;3.90;;;4.00;99.90;;;;;;5029636;28;20277;-71
2022/04/11 00:28:16;;;;;;;7.43;4.30;;;4.00;99.90;;;;;;5029836;28;20421;-71
2022/04/11 00:30:42;;;;;;;4.43;3.23;;;4.00;99.90;;;;;;5029470;28;20187;-71
2022/04/11 00:33:08;;;;;;;5.53;3.90;;;3.90;99.90;;;;;;5029192;28;20652;-71
2022/04/11 00:35:33;;;;;;;4.03;3.60;;;3.90;99.90;;;;;;5028674;28;20691;-71
2022/04/11 00:37:59;;;;;;;5.90;3.37;;;3.90;99.90;;;;;;5028957;28;20195;-71
2022/04/11 00:40:25;;;;;;;5.73;3.40;;;3.90;99.90;;;;;;5028666;28;20657;-71
2022/04/11 00:42:50;;;;;;;5.13;3.50;;;3.90;99.90;;;;;;5014220;28;20628;-72
2022/04/11 00:45:16;;;;;;;7.40;3.37;;;3.90;99.90;;;;;;5032324;28;20206;-71
2022/04/11 00:47:42;;;;;;;4.40;3.40;;;4.00;99.90;;;;;;5032501;28;20237;-72
2022/04/11 00:50:10;;;;;;;8.47;4.40;;;3.90;99.90;;;;;;5032406;28;20267;-70
2022/04/11 00:52:38;;;;;;;3.90;3.42;;;3.90;99.90;;;;;;5032314;28;20422;-70
2022/04/11 00:55:07;;;;;;;4.63;4.00;;;3.90;99.90;;;;;;5032231;28;20224;-70
2022/04/11 00:57:33;;;;;;;5.13;3.38;;;3.90;99.90;;;;;;5032031;28;20524;-71
2022/04/11 00:59:59;;;;;;;6.25;3.50;;;3.90;99.90;;;;;;5014123;28;20629;-71
2022/04/11 01:02:26;;;;;;;5.55;3.95;;;3.90;99.90;;;;;;5031976;28;20723;-71
2022/04/11 01:04:51;;;;;;;4.95;3.10;;;3.90;99.90;;;;;;5032184;28;20186;-71
2022/04/11 01:07:19;;;;;;;5.87;3.67;;;3.90;99.90;;;;;;5032096;28;20242;-71
2022/04/11 01:09:45;;;;;;;4.20;3.50;;;3.90;99.90;;;;;;5032130;28;20683;-71
2022/04/11 01:12:15;;;;;;;4.20;3.90;;;4.00;99.90;;;;;;5032221;28;20449;-71
2022/04/11 01:14:42;;;;;;;5.55;3.20;;;4.00;99.90;;;;;;5032213;28;21278;-70
2022/04/11 01:17:08;;;;;;;5.77;3.20;;;3.90;99.90;;;;;;5032062;28;20215;-71
2022/04/11 01:19:34;;;;;;;7.90;3.73;;;3.90;99.90;;;;;;5032149;28;20775;-70
2022/04/11 01:22:00;;;;;;;5.38;3.22;;;3.90;99.90;;;;;;5032065;28;20981;-71
2022/04/11 01:24:28;;;;;;;6.70;3.67;;;3.90;99.90;;;;;;5032577;28;20251;-70
2022/04/11 01:26:54;;;;;;;10.10;4.95;;;3.90;99.90;;;;;;5032095;28;20207;-70
2022/04/11 01:29:19;;;;;;;3.70;3.37;;;4.00;99.90;;;;;;5032364;28;20190;-70
2022/04/11 01:31:46;;;;;;;8.43;4.10;;;3.90;99.90;;;;;;5031992;28;20196;-71
2022/04/11 01:34:12;;;;;;;4.97;3.77;;;3.90;99.90;;;;;;5031987;28;20737;-70
2022/04/11 01:36:37;;;;;;;6.60;3.77;;;3.90;99.90;;;;;;5031876;28;20441;-70
2022/04/11 01:39:04;;;;;;;6.90;3.80;;;3.90;99.90;;;;;;5031785;28;20233;-71
2022/04/11 01:41:29;;;;;;;5.65;4.03;;;4.00;99.90;;;;;;5031563;28;20211;-72
2022/04/11 01:43:55;;;;;;;3.50;3.20;;;3.90;99.90;;;;;;5013788;28;20274;-70
2022/04/11 01:46:21;;;;;;;3.90;3.53;;;4.00;99.90;;;;;;5031544;28;20210;-70
2022/04/11 01:48:46;;;;;;;5.70;4.00;;;3.90;99.90;;;;;;5031265;28;20215;-71
2022/04/11 01:51:16;;;;;;;4.87;3.60;;;3.90;99.90;;;;;;5031207;28;20217;-70
2022/04/11 01:53:41;;;;;;;9.43;4.00;;;3.90;99.90;;;;;;5031040;28;20184;-71
2022/04/11 01:56:07;;;;;;;8.03;4.53;;;4.00;99.90;;;;;;5030968;28;20203;-70
2022/04/11 01:58:33;;;;;;;5.23;3.57;;;4.00;99.90;;;;;;5031063;28;20228;-71
2022/04/11 02:00:59;;;;;;;6.77;3.97;;;4.00;99.90;;;;;;5030975;28;20246;-71
2022/04/11 02:03:26;;;;;;;10.83;4.33;;;4.00;99.90;;;;;;5030809;28;20246;-75
2022/04/11 02:05:51;;;;;;;8.13;4.30;;;3.90;99.90;;;;;;5030641;28;20429;-73
2022/04/11 02:08:17;;;;;;;5.63;4.50;;;3.90;99.90;;;;;;5030772;28;20424;-72
2022/04/11 02:10:43;;;;;;;6.63;4.43;;;3.90;99.90;;;;;;5030819;28;20697;-72
2022/04/11 02:13:09;;;;;;;5.73;4.70;;;3.90;99.90;;;;;;5030814;28;20192;-72
2022/04/11 02:15:35;;;;;;;11.33;4.83;;;3.90;99.90;;;;;;5030636;28;20529;-72
2022/04/11 02:18:01;;;;;;;4.40;4.00;;;3.90;99.90;;;;;;5030719;28;20191;-72
2022/04/11 02:20:27;;;;;;;6.47;4.73;;;4.00;99.90;;;;;;5030893;28;20445;-71
2022/04/11 02:22:55;;;;;;;7.13;4.00;;;4.00;99.90;;;;;;5013011;28;21056;-70
2022/04/11 02:25:31;;;;;;;5.90;4.30;;;4.00;99.90;;;;;;5030636;28;20454;-70
2022/04/11 02:27:57;;;;;;;6.68;4.13;;;4.00;99.90;;;;;;5013149;28;21050;-70
2022/04/11 02:30:24;;;;;;;5.93;4.38;;;4.10;99.90;;;;;;5030587;28;20232;-70
2022/04/11 02:32:51;;;;;;;7.68;4.60;;;4.10;99.90;;;;;;5030599;28;20183;-70
2022/04/11 02:35:18;;;;;;;9.40;4.40;;;4.20;99.90;;;;;;5030398;28;20210;-70
2022/04/11 02:37:44;;;;;;;4.85;4.07;;;4.20;99.90;;;;;;5030462;28;20431;-70
2022/04/11 02:40:12;;;;;;;8.10;4.00;;;4.20;99.90;;;;;;5030555;28;20198;-71
2022/04/11 02:42:41;;;;;;;5.07;4.40;;;4.20;99.90;;;;;;5030352;28;20477;-72
2022/04/11 02:45:10;;;;;;;6.03;4.13;;;4.20;99.90;;;;;;5030304;28;20428;-72
2022/04/11 02:47:36;;;;;;;8.07;4.47;;;4.20;99.90;;;;;;5030399;28;20798;-72
2022/04/11 02:50:02;;;;;;;6.50;4.50;;;4.20;99.90;;;;;;5030433;28;20184;-73
2022/04/11 02:52:29;;;;;;;5.73;4.00;;;4.20;99.90;;;;;;5030408;28;20191;-73
2022/04/11 02:54:55;;;;;;;5.07;3.72;;;4.20;99.90;;;;;;5030142;28;20191;-73
2022/04/11 02:57:22;;;;;;;4.30;3.90;;;4.30;99.90;;;;;;5012282;28;20200;-73
2022/04/11 02:59:48;;;;;;;10.87;4.60;;;4.20;99.90;;;;;;5030196;28;20223;-73
2022/04/11 03:02:14;;;;;;;7.90;4.27;;;4.30;99.90;;;;;;5030733;28;20494;-73
2022/04/11 03:04:40;;;;;;;9.20;4.23;;;4.30;99.90;;;;;;5031324;28;21018;-73
2022/04/11 03:07:06;;;;;;;5.70;3.63;;;4.30;99.90;;;;;;5030193;28;20196;-73
2022/04/11 03:09:32;;;;;;;5.77;4.20;;;4.30;99.90;;;;;;5030257;28;20633;-73
2022/04/11 03:11:58;;;;;;;18.00;3.73;;;4.40;99.90;;;;;;5029920;28;20433;-73
2022/04/11 03:14:23;;;;;;;4.80;3.87;;;4.30;99.90;;;;;;5029840;28;20453;-74
2022/04/11 03:16:50;;;;;;;4.90;3.93;;;4.30;99.90;;;;;;5029624;28;20618;-73
2022/04/11 03:19:15;;;;;;;5.80;4.15;;;4.30;99.90;;;;;;5011527;28;20437;-73
2022/04/11 03:21:41;;;;;;;5.33;4.50;;;4.30;99.90;;;;;;5029463;28;20219;-73
2022/04/11 03:24:07;;;;;;;7.87;3.80;;;4.30;99.90;;;;;;5011336;28;20188;-73
2022/04/11 03:26:32;;;;;;;4.03;3.57;;;4.30;99.90;;;;;;5029333;28;20598;-73
2022/04/11 03:28:58;;;;;;;5.73;4.20;;;4.30;99.90;;;;;;5029379;28;20421;-73
2022/04/11 03:31:24;;;;;;;7.33;4.33;;;4.30;99.90;;;;;;5011342;28;20190;-73
2022/04/11 03:33:49;;;;;;;6.97;4.23;;;4.30;99.90;;;;;;5029331;28;20207;-72
2022/04/11 03:36:15;;;;;;;9.17;5.60;;;4.30;99.90;;;;;;5029175;28;20300;-72
2022/04/11 03:38:40;;;;;;;8.30;4.80;;;4.30;99.90;;;;;;5029186;28;20200;-72
2022/04/11 03:41:06;;;;;;;6.60;4.80;;;4.30;99.90;;;;;;5029219;28;20227;-72
2022/04/11 03:43:32;;;;;;;7.90;5.00;;;4.30;99.90;;;;;;5029051;28;20220;-72
2022/04/11 03:45:57;;;;;;;11.33;5.37;;;4.30;99.90;;;;;;5028877;28;20603;-72
2022/04/11 03:48:23;;;;;;;9.43;4.90;;;4.40;99.90;;;;;;5011345;28;20253;-72
2022/04/11 03:50:48;;;;;;;7.43;4.70;;;4.40;99.90;;;;;;5028973;28;20644;-72
2022/04/11 03:53:16;;;;;;;6.33;4.93;;;4.40;99.90;;;;;;5029125;28;20267;-73
2022/04/11 03:55:42;;;;;;;7.70;4.65;;;4.40;99.90;;;;;;5028903;28;20216;-73
2022/04/11 03:58:08;;;;;;;7.10;4.63;;;4.40;99.90;;;;;;5010970;28;20194;-73
2022/04/11 04:00:33;;;;;;;4.97;4.47;;;4.40;99.90;;;;;;5028821;28;20777;-73
2022/04/11 04:03:10;;;;;;;5.80;4.30;;;4.50;99.90;;;;;;5029212;28;20247;-73
2022/04/11 04:05:40;;;;;;;5.83;3.73;;;4.50;99.90;;;;;;5028524;28;20202;-73
2022/04/11 04:08:07;;;;;;;5.93;3.90;;;4.50;99.90;;;;;;5028679;28;20417;-73
2022/04/11 04:10:33;;;;;;;7.57;5.83;;;4.50;99.90;;;;;;5028661;28;20683;-72
2022/04/11 04:12:59;;;;;;;10.70;6.10;;;4.40;99.90;;;;;;5028449;28;20446;-73
2022/04/11 04:15:25;;;;;;;11.27;5.40;;;4.20;99.90;;;;;;5009858;28;20309;-73
2022/04/11 04:17:54;;;;;;;8.57;5.67;;;3.90;99.90;;;;;;5028338;28;20978;-73
2022/04/11 04:20:20;;;;;;;7.37;5.20;;;3.90;99.90;;;;;;5028357;28;20485;-73
2022/04/11 04:22:46;;;;;;;9.47;4.60;;;4.00;99.90;;;;;;5010338;28;20467;-73
2022/04/11 04:25:12;;;;;;;3.73;3.27;;;4.10;99.90;;;;;;5009969;28;20202;-73
2022/04/11 04:27:37;;;;;;;3.27;2.90;;;4.20;99.90;;;;;;5009867;28;20221;-73
2022/04/11 04:30:05;;;;;;;4.47;3.23;;;4.30;99.90;;;;;;5009699;28;20282;-73
2022/04/11 04:32:30;;;;;;;5.37;3.33;;;4.30;99.90;;;;;;5027716;28;20927;-73
2022/04/11 04:34:56;;;;;;;3.73;2.90;;;4.40;99.90;;;;;;5027933;28;20436;-73
2022/04/11 04:37:21;;;;;;;4.83;3.70;;;4.40;99.90;;;;;;5027797;28;20197;-73
2022/04/11 04:39:47;;;;;;;12.07;4.00;;;4.40;99.90;;;;;;5027392;28;20183;-73
2022/04/11 04:42:20;;;;;;;5.00;3.70;;;4.40;99.90;;;;;;5028049;28;20216;-73
2022/04/11 04:44:45;;;;;;;6.10;4.33;;;4.40;99.90;;;;;;5028148;28;20175;-73
2022/04/11 04:47:11;;;;;;;6.13;3.90;;;4.40;99.90;;;;;;5028273;28;20780;-73
2022/04/11 04:49:37;;;;;;;4.47;3.40;;;4.30;99.90;;;;;;5027310;28;20177;-73
2022/04/11 04:52:03;;;;;;;6.63;4.53;;;4.30;99.90;;;;;;5027050;28;20198;-73
2022/04/11 04:54:29;;;;;;;6.97;4.33;;;4.40;99.90;;;;;;5027077;28;20648;-73
2022/04/11 04:56:54;;;;;;;8.50;3.63;;;4.30;99.90;;;;;;5026855;28;20482;-73
2022/04/11 04:59:20;;;;;;;4.97;3.87;;;4.40;99.90;;;;;;5008985;28;20184;-73
2022/04/11 05:01:45;;;;;;;7.27;3.30;;;4.30;99.90;;;;;;5027492;28;20218;-73
2022/04/11 05:04:11;;;;;;;9.07;3.90;;;4.30;99.90;;;;;;5009502;28;20184;-73
2022/04/11 05:06:37;;;;;;;6.30;4.00;;;4.40;99.90;;;;;;5026957;28;20208;-73
2022/04/11 05:09:02;;;;;;;4.60;3.53;;;4.40;99.90;;;;;;5027049;28;20200;-72
2022/04/11 05:11:28;;;;;;;8.43;4.27;;;4.30;99.90;;;;;;5026849;28;20183;-73
2022/04/11 05:13:54;;;;;;;8.13;4.33;;;4.40;99.90;;;;;;5026834;28;20176;-73
2022/04/11 05:16:19;;;;;;;6.50;3.90;;;4.30;99.90;;;;;;4992602;28;20255;-73
2022/04/11 05:18:46;;;;;;;5.73;4.40;;;4.30;99.90;;;;;;5026844;28;20187;-73
2022/04/11 05:21:11;;;;;;;5.80;3.70;;;4.30;99.90;;;;;;5026973;28;20952;-73
2022/04/11 05:23:37;;;;;;;7.80;4.60;;;4.30;99.90;;;;;;5009223;28;20225;-73
2022/04/11 05:26:05;;;;;;;6.83;4.43;;;4.30;99.90;;;;;;5026750;28;20275;-73
2022/04/11 05:28:32;;;;;;;6.68;4.43;;;4.40;99.90;;;;;;5029719;28;20175;-73
2022/04/11 05:30:58;;;;;;;6.07;4.17;;;4.40;99.90;;;;;;5030347;28;20187;-73
2022/04/11 05:33:24;;;;;;;7.53;4.33;;;4.50;99.90;;;;;;5030319;28;20527;-73
2022/04/11 05:35:50;;;;;;;4.27;3.73;;;4.50;99.90;;;;;;5012421;28;20447;-73
2022/04/11 05:38:16;;;;;;;7.47;4.60;;;4.60;99.90;;;;;;5012638;28;21249;-73
2022/04/11 05:40:43;;;;;;;8.93;4.10;;;4.70;99.90;;;;;;5030400;28;20430;-73
2022/04/11 05:43:08;;;;;;;7.47;4.23;;;4.80;99.90;;;;;;5030235;28;21037;-73
2022/04/11 05:45:35;;;;;;;3.60;3.30;;;4.90;99.90;;;;;;5030243;28;20446;-72
2022/04/11 05:48:01;;;;;;;6.73;3.60;;;5.10;99.90;;;;;;5012620;28;20185;-73
2022/04/11 05:50:27;;;;;;;6.47;3.80;;;5.30;99.90;;;;;;5030386;28;20423;-73
2022/04/11 05:52:53;;;;;;;8.60;4.07;;;5.50;99.90;;;;;;5013399;28;20923;-73
2022/04/11 05:55:18;;;;;;;7.10;3.73;;;5.60;99.90;;;;;;5012452;28;20303;-72
2022/04/11 05:57:44;;;;;;;4.53;3.77;;;5.70;99.40;;;;;;5030013;28;20200;-73
2022/04/11 06:00:11;;;;;;;5.13;3.33;;;5.90;99.90;;;;;;5029837;28;20511;-73
2022/04/11 06:02:37;;;;;;;5.27;3.57;;;6.10;99.70;;;;;;5029813;28;20214;-73
2022/04/11 06:05:03;;;;;;;3.63;2.77;;;6.20;99.10;;;;;;5029994;28;20418;-73
2022/04/11 06:07:32;;;;;;;3.30;3.00;;;6.30;98.80;;;;;;5030103;28;20198;-73
2022/04/11 06:09:59;;;;;;;3.53;2.90;;;6.40;98.40;;;;;;5030295;28;20453;-72
2022/04/11 06:12:25;;;;;;;6.30;3.13;;;6.50;98.00;;;;;;5012546;28;20514;-73
2022/04/11 06:14:53;;;;;;;3.27;2.37;;;6.80;98.00;;;;;;5030239;28;20423;-73
2022/04/11 06:17:23;;;;;;;6.67;3.07;;;7.00;97.10;;;;;;5030138;28;20951;-73
2022/04/11 06:19:52;;;;;;;7.87;3.43;;;7.10;96.40;;;;;;5030336;28;20411;-73
2022/04/11 06:22:19;;;;;;;3.53;2.97;;;7.30;96.00;;;;;;5030182;28;20466;-73
2022/04/11 06:24:45;;;;;;;3.93;3.20;;;7.60;96.60;;;;;;4995950;28;20450;-73
2022/04/11 06:27:11;;;;;;;3.70;2.80;;;7.80;96.40;;;;;;5030193;28;20444;-73
2022/04/11 06:29:37;;;;;;;3.97;2.60;;;7.80;94.30;;;;;;5012315;28;20418;-73
2022/04/11 06:32:04;;;;;;;6.03;2.87;;;7.90;93.90;;;;;;5030332;28;20753;-73
2022/04/11 06:34:33;;;;;;;3.53;2.70;;;7.90;93.90;;;;;;5030592;28;20180;-73
2022/04/11 06:36:59;;;;;;;4.03;2.90;;;8.10;93.30;;;;;;5030223;28;20443;-72
2022/04/11 06:39:26;;;;;;;10.20;2.60;;;8.20;93.60;;;;;;5029234;28;20487;-73
2022/04/11 06:41:52;;;;;;;2.70;2.50;;;8.30;92.80;;;;;;5029958;28;20879;-73
2022/04/11 06:44:17;;;;;;;3.47;2.50;;;8.40;92.20;;;;;;5029944;28;20415;-73
2022/04/11 06:46:43;;;;;;;3.97;2.57;;;8.80;93.10;;;;;;5029818;28;20197;-72
2022/04/11 06:49:09;;;;;;;4.73;2.43;;;9.20;93.30;;;;;;5029777;28;20264;-72
2022/04/11 06:51:34;;;;;;;4.07;2.63;;;9.10;90.80;;;;;;5029606;28;20655;-73
2022/04/11 06:54:00;;;;;;;4.53;2.63;;;8.90;90.80;;;;;;5011383;28;20188;-73
2022/04/11 06:56:26;;;;;;;4.60;3.40;;;9.00;90.40;;;;;;5029168;28;20197;-73
2022/04/11 06:58:51;;;;;;;3.80;2.37;;;9.00;91.30;;;;;;5029154;28;20188;-73
2022/04/11 07:01:17;;;;;;;2.67;2.47;;;8.90;90.70;;;;;;5029084;28;20189;-72
2022/04/11 07:03:43;;;;;;;2.93;2.60;;;9.30;91.90;;;;;;5029356;28;20684;-72
2022/04/11 07:06:10;;;;;;;4.00;2.40;;;9.20;90.10;;;;;;5029781;28;20316;-72
2022/04/11 07:08:35;;;;;;;2.97;2.50;;;9.30;88.80;;;;;;5029441;28;20276;-72
2022/04/11 07:11:01;;;;;;;5.47;2.50;;;9.40;88.40;;;;;;5011797;28;20529;-73
2022/04/11 07:13:27;;;;;;;3.03;2.73;;;9.30;89.60;;;;;;5029591;28;20515;-72
2022/04/11 07:15:53;;;;;;;3.40;3.10;;;9.40;88.70;;;;;;5029169;28;20199;-73
2022/04/11 07:18:25;;;;;;;3.00;2.30;;;9.50;88.00;;;;;;5028992;28;20176;-73
2022/04/11 07:20:51;;;;;;;3.23;2.10;;;9.60;88.20;;;;;;5028818;28;20178;-73
2022/04/11 07:23:17;;;;;;;4.43;2.47;;;9.70;86.90;;;;;;5011125;28;20463;-73
2022/04/11 07:25:43;;;;;;;4.13;2.50;;;9.50;84.90;;;;;;5029275;28;20215;-73
2022/04/11 07:28:08;;;;;;;2.10;1.90;;;9.60;86.20;;;;;;5011577;28;20205;-73
2022/04/11 07:30:34;;;;;;;3.27;2.30;;;9.70;87.30;;;;;;5029274;28;20288;-72
2022/04/11 07:33:00;;;;;;;4.00;2.80;;;9.60;85.90;;;;;;5029390;28;20357;-72
2022/04/11 07:35:25;;;;;;;3.60;2.00;;;10.00;85.40;;;;;;5030309;28;20873;-72
2022/04/11 07:37:51;;;;;;;3.97;2.30;;;9.80;83.40;;;;;;5030109;28;20288;-72
2022/04/11 07:40:17;;;;;;;2.80;2.60;;;9.90;83.80;;;;;;5028948;28;20173;-72
2022/04/11 07:42:42;;;;;;;3.87;2.53;;;10.00;83.60;;;;;;5028628;28;20230;-72
2022/04/11 07:45:09;;;;;;;4.80;2.10;;;10.00;82.60;;;;;;4994281;28;20223;-72
2022/04/11 07:47:35;;;;;;;5.63;2.53;;;10.30;86.00;;;;;;5028635;28;20188;-72
2022/04/11 07:50:01;;;;;;;1.77;1.67;;;10.20;81.40;;;;;;5028386;28;20506;-72
2022/04/11 07:52:26;;;;;;;4.90;2.40;;;10.40;80.30;;;;;;5010700;28;20915;-72
2022/04/11 07:54:53;;;;;;;7.57;2.33;;;10.40;80.80;;;;;;5028231;28;20431;-72
2022/04/11 07:57:18;;;;;;;3.50;2.30;;;10.30;77.60;;;;;;5028310;28;20202;-73
2022/04/11 07:59:44;;;;;;;4.20;1.93;;;10.50;78.60;;;;;;5027936;28;21255;-72
2022/04/11 08:02:10;;;;;;;4.90;1.93;;;10.60;78.30;;;;;;5027602;28;20465;-72
2022/04/11 08:04:36;;;;;;;2.20;2.00;;;10.80;79.20;;;;;;4993468;28;20406;-72
2022/04/11 08:07:02;;;;;;;2.40;2.00;;;10.90;76.70;;;;;;4993494;28;20201;-72
2022/04/11 08:09:29;;;;;;;1.90;1.80;;;10.80;76.10;;;;;;5010076;28;20173;-72
2022/04/11 08:11:55;;;;;;;3.23;2.00;;;10.80;77.00;;;;;;5010020;28;20636;-72
2022/04/11 08:14:21;;;;;;;2.70;1.90;;;11.30;78.90;;;;;;5027586;28;20477;-72
2022/04/11 08:16:47;;;;;;;2.37;1.93;;;11.70;77.10;;;;;;5027568;28;20982;-72
2022/04/11 08:19:13;;;;;;;4.23;2.17;;;11.70;74.00;;;;;;5027679;28;20184;-72
2022/04/11 08:21:39;;;;;;;4.50;2.23;;;11.50;69.90;;;;;;5027474;28;20537;-72
2022/04/11 08:24:05;;;;;;;3.23;1.93;;;11.60;71.40;;;;;;5027340;28;20181;-72
2022/04/11 08:26:31;;;;;;;1.83;1.63;;;11.30;72.30;;;;;;5027291;28;20525;-72
2022/04/11 08:28:57;;;;;;;8.10;2.40;;;11.90;73.80;;;;;;5027190;28;20554;-72
2022/04/11 08:31:23;;;;;;;3.37;1.90;;;12.00;70.20;;;;;;5027387;28;20196;-72
2022/04/11 08:33:48;;;;;;;3.67;1.73;;;11.80;68.50;;;;;;5027210;28;20203;-72
2022/04/11 08:36:14;;;;;;;2.87;1.90;;;12.20;71.80;;;;;;5027185;28;20201;-72
2022/04/11 08:38:40;;;;;;;3.97;2.00;;;12.50;70.20;;;;;;5026900;28;20232;-73
2022/04/11 08:41:12;;;;;;;4.37;3.10;;;12.40;68.10;;;;;;5027112;28;20307;-72
2022/04/11 08:43:38;;;;;;;2.17;1.80;;;12.60;69.00;;;;;;5026959;28;20359;-72
2022/04/11 08:46:05;;;;;;;4.23;2.00;;;12.70;66.30;;;;;;4992604;28;20987;-72
2022/04/11 08:48:32;;;;;;;2.13;1.90;;;12.70;65.80;;;;;;5027444;28;20192;-72
2022/04/11 08:50:58;;;;;;;3.90;2.03;;;12.90;65.10;;;;;;5028565;28;20531;-72
2022/04/11 08:53:24;;;;;;;2.33;2.03;;;13.00;63.90;;;;;;5028423;28;20412;-72
2022/04/11 08:55:51;;;;;;;1.83;1.63;;;13.40;64.30;;;;;;5028823;28;20471;-72
2022/04/11 08:58:17;;;;;;;3.83;2.40;;;13.50;64.40;;;;;;5027887;28;20287;-72
2022/04/11 09:00:42;;;;;;;2.83;1.67;;;13.40;60.90;;;;;;5027956;28;20414;-72
2022/04/11 09:03:08;;;;;;;2.30;2.07;;;13.90;64.60;;;;;;5012359;28;20487;-72
2022/04/11 09:05:34;;;;;;;5.30;2.40;;;13.80;62.40;;;;;;5031270;28;20199;-73
2022/04/11 09:08:00;;;;;;;3.00;2.20;;;14.10;61.30;;;;;;5031135;28;20271;-73
2022/04/11 09:10:32;;;;;;;3.40;2.63;;;14.80;62.70;;;;;;5031396;28;20410;-72
2022/04/11 09:12:59;;;;;;;4.33;2.57;;;14.90;59.30;;;;;;5031217;28;20433;-73
2022/04/11 09:15:26;;;;;;;5.83;2.30;;;15.10;57.60;;;;;;5013316;28;20445;-73
2022/04/11 09:17:54;;;;;;;3.57;2.77;;;15.40;56.10;;;;;;5013663;28;20430;-72
2022/04/11 09:20:30;;;;;;;4.50;2.90;;;16.00;56.30;;;;;;5013172;28;20454;-73
2022/04/11 09:22:56;;;;;;;6.50;2.50;;;16.20;55.40;;;;;;5031113;28;20527;-73
2022/04/11 09:25:32;;;;;;;4.20;3.03;;;15.90;54.20;;;;;;5031086;28;20501;-73
2022/04/11 09:28:09;;;;;;;4.67;2.80;;;15.40;52.70;;;;;;5013240;28;20430;-73
2022/04/11 09:30:36;;;;;;;5.63;2.63;;;15.40;53.10;;;;;;5012960;28;20423;-73
2022/04/11 09:33:04;;;;;;;5.33;2.93;;;15.80;53.80;;;;;;5030661;28;20455;-73
2022/04/11 09:35:32;;;;;;;5.47;3.30;;;15.80;52.80;;;;;;5012718;28;20470;-73
2022/04/11 09:38:18;;;;;;;4.10;3.20;;;16.10;51.40;;;;;;5030751;28;21077;-73
2022/04/11 09:40:54;;;;;;;5.23;3.20;;;15.40;50.90;;;;;;5030727;28;20418;-73
2022/04/11 09:43:33;;;;;;;5.83;3.30;;;15.60;52.50;;;;;;5030448;28;20488;-73
2022/04/11 09:46:02;;;;;;;4.37;2.80;;;16.00;52.80;;;;;;5030455;28;20446;-73
2022/04/11 09:48:32;;;;;;;4.50;3.03;;;15.70;52.00;;;;;;5012604;28;20584;-73
2022/04/11 09:50:59;;;;;;;6.10;3.37;;;15.30;49.50;;;;;;5013633;28;20420;-73
2022/04/11 09:53:35;;;;;;;4.10;2.70;;;14.90;50.00;;;;;;5031113;28;20534;-73
2022/04/11 09:56:08;;;;;;;4.10;2.63;;;15.60;51.90;;;;;;5030668;28;20665;-73
2022/04/11 09:58:35;;;;;;;6.37;2.57;;;16.10;51.90;;;;;;5030707;28;20418;-73
2022/04/11 10:01:03;;;;;;;3.60;2.13;;;16.30;49.30;;;;;;5030559;28;20415;-73
2022/04/11 10:03:29;;;;;;;3.40;2.20;;;16.50;48.20;;;;;;5030350;28;20472;-73
2022/04/11 10:05:56;;;;;;;2.73;1.87;;;16.80;48.60;;;;;;5012556;28;20439;-72
2022/04/11 10:08:27;;;;;;;2.50;2.00;;;16.30;45.80;;;;;;5030703;28;20530;-73
2022/04/11 10:10:54;;;;;;;3.10;2.27;;;17.10;49.90;;;;;;5030472;28;20449;-73
2022/04/11 10:13:20;;;;;;;2.23;1.67;;;17.30;46.30;;;;;;5011148;28;20432;-73
2022/04/11 10:15:49;;;;;;;5.07;2.17;;;18.00;46.70;;;;;;5029750;28;20552;-73
2022/04/11 10:18:27;;;;;;;2.90;2.10;;;17.70;45.20;;;;;;5030060;28;20419;-73
2022/04/11 10:20:57;;;;;;;2.30;1.90;;;17.70;44.50;;;;;;5030133;28;20407;-73
2022/04/11 10:23:40;;;;;;;1.77;1.60;;;18.10;45.10;;;;;;5030050;28;20485;-73
2022/04/11 10:26:15;;;;;;;2.30;2.10;;;18.20;44.60;;;;;;5029714;28;20475;-73
2022/04/11 10:28:48;;;;;;;3.03;1.70;;;18.20;43.60;;;;;;5029888;28;20425;-73
2022/04/11 10:31:15;;;;;;;3.03;1.70;;;18.00;43.40;;;;;;5030114;28;20428;-73
2022/04/11 10:33:50;;;;;;;2.53;2.00;;;17.80;41.40;;;;;;5011959;28;20459;-73
2022/04/11 10:36:34;;;;;;;3.70;1.87;;;17.80;43.30;;;;;;5029789;28;20437;-73
2022/04/11 10:39:15;;;;;;;2.73;1.57;;;17.90;44.20;;;;;;5029887;28;20498;-73
2022/04/11 10:41:56;;;;;;;3.07;1.60;;;18.30;41.20;;;;;;5011867;28;20434;-73
2022/04/11 10:44:35;;;;;;;2.23;2.03;;;18.20;41.50;;;;;;5011515;28;20533;-73
2022/04/11 10:49:44;;;;;;;3.10;1.50;;;18.30;41.20;;;;;;5029383;28;20742;-73
2022/04/11 10:52:36;;;;;;;1.93;1.80;;;18.90;43.50;;;;;;5029261;28;20459;-73
2022/04/11 10:55:19;;;;;;;1.97;1.77;;;19.10;41.70;;;;;;5028803;28;20410;-73
2022/04/11 10:57:46;;;;;;;2.03;1.83;;;18.90;40.20;;;;;;5028859;28;20460;-73
2022/04/11 11:00:17;;;;;;;3.00;1.57;;;19.10;41.20;;;;;;5028866;28;20418;-73
2022/04/11 11:02:59;;;;;;;1.80;1.47;;;18.70;39.10;;;;;;5028794;28;20469;-73
2022/04/11 11:05:40;;;;;;;3.77;1.80;;;18.60;41.10;;;;;;5010570;28;20492;-73
2022/04/11 11:08:09;;;;;;;1.87;1.40;;;18.70;37.50;;;;;;5028602;28;20465;-73
2022/04/11 11:10:55;;;;;;;2.87;1.80;;;18.50;39.50;;;;;;5028586;28;20410;-73
2022/04/11 11:13:43;;;;;;;2.80;1.77;;;18.80;37.90;;;;;;5028452;28;20424;-73
2022/04/11 11:16:12;;;;;;;4.40;2.13;;;19.30;40.60;;;;;;5028444;28;20450;-73
2022/04/11 11:18:50;;;;;;;3.20;2.07;;;19.50;39.10;;;;;;5028329;28;20480;-73
2022/04/11 11:21:19;;;;;;;4.20;1.40;;;19.80;40.00;;;;;;5010042;28;20900;-73
2022/04/11 11:24:03;;;;;;;1.97;1.53;;;19.90;38.80;;;;;;5028325;28;20492;-73
2022/04/11 11:26:51;;;;;;;1.63;1.40;;;19.80;35.70;;;;;;5027793;28;20989;-74
2022/04/11 11:29:25;;;;;;;2.80;2.00;;;19.70;36.00;;;;;;5028193;28;20414;-73
2022/04/11 11:31:57;;;;;;;2.50;1.57;;;19.50;36.30;;;;;;5010116;28;20546;-73
2022/04/11 11:34:26;;;;;;;2.67;1.87;;;19.80;36.90;;;;;;5028235;28;20463;-73
2022/04/11 11:36:56;;;;;;;2.37;1.90;;;19.60;36.30;;;;;;5028100;28;20431;-74
2022/04/11 11:39:23;;;;;;;3.60;1.70;;;19.50;36.50;;;;;;5028082;28;20426;-73
2022/04/11 11:41:53;;;;;;;2.20;1.60;;;19.70;36.20;;;;;;5027747;28;20465;-73
2022/04/11 11:44:19;;;;;;;1.43;1.33;;;19.90;34.70;;;;;;5027920;28;20413;-73
2022/04/11 11:46:54;;;;;;;2.80;1.77;;;19.70;34.40;;;;;;5027599;28;20435;-73
2022/04/11 11:49:21;;;;;;;3.33;1.93;;;20.00;35.00;;;;;;5027973;28;20895;-74
2022/04/11 11:51:47;;;;;;;3.50;1.77;;;20.10;35.30;;;;;;5027978;28;20438;-73
2022/04/11 11:54:13;;;;;;;5.00;2.10;;;20.20;35.30;;;;;;5028016;28;20491;-73
2022/04/11 11:56:46;;;;;;;2.50;1.83;;;20.50;34.90;;;;;;5027612;28;20425;-73
2022/04/11 11:59:14;;;;;;;1.43;1.20;;;20.20;34.10;;;;;;5027833;28;20773;-73
2022/04/11 12:01:40;;;;;;;2.77;2.03;;;20.60;35.00;;;;;;5027723;28;20502;-74
2022/04/11 12:04:19;;;;;;;2.23;1.97;;;20.60;34.60;;;;;;5027822;28;20461;-73
2022/04/11 12:06:54;;;;;;;3.57;1.60;;;20.70;33.50;;;;;;5027923;28;20611;-73
2022/04/11 12:09:20;;;;;;;1.90;1.67;;;20.40;34.40;;;;;;5028216;28;20442;-73
2022/04/11 12:11:46;;;;;;;2.40;2.07;;;20.60;33.90;;;;;;5028029;28;20435;-74
2022/04/11 12:14:12;;;;;;;2.40;1.93;;;20.40;34.50;;;;;;5028203;28;20894;-73
2022/04/11 12:16:54;;;;;;;2.93;1.70;;;20.70;33.20;;;;;;5010390;28;20442;-73
2022/04/11 12:19:35;;;;;;;2.80;1.90;;;20.70;33.00;;;;;;5010355;28;20190;-73
2022/04/11 12:22:14;;;;;;;3.00;1.90;;;20.30;32.50;;;;;;5028067;28;20458;-73
2022/04/11 12:24:41;;;;;;;3.20;1.60;;;20.70;35.70;;;;;;5028103;28;20439;-73
2022/04/11 12:27:13;;;;;;;2.43;2.23;;;21.00;35.00;;;;;;5029133;28;20438;-73
2022/04/11 12:29:43;;;;;;;1.80;1.70;;;21.00;35.00;;;;;;5029384;28;20426;-73
2022/04/11 12:32:14;;;;;;;2.33;2.13;;;21.10;33.80;;;;;;5027995;28;20427;-73
2022/04/11 12:34:44;;;;;;;3.13;2.10;;;21.00;35.40;;;;;;5027970;28;20714;-73
2022/04/11 12:37:12;;;;;;;7.40;2.17;;;21.30;37.30;;;;;;5009387;28;20475;-73
2022/04/11 12:39:54;;;;;;;3.40;2.30;;;21.40;35.90;;;;;;5009930;28;20427;-73
2022/04/11 12:42:22;;;;;;;2.13;1.93;;;21.30;34.80;;;;;;5009702;28;20469;-73
2022/04/11 12:44:48;;;;;;;2.40;2.17;;;21.60;35.60;;;;;;5027681;28;20473;-73
2022/04/11 12:47:14;;;;;;;2.30;2.10;;;21.80;35.10;;;;;;5027468;28;20461;-73
2022/04/11 12:49:51;;;;;;;3.73;1.77;;;21.70;34.70;;;;;;5027736;28;20418;-73
2022/04/11 12:52:19;;;;;;;2.17;1.97;;;21.10;33.40;;;;;;5027921;28;20432;-73
2022/04/11 12:54:50;;;;;;;2.57;2.33;;;21.20;35.40;;;;;;5027858;28;20473;-73
2022/04/11 12:57:24;;;;;;;2.47;1.83;;;20.70;33.50;;;;;;5027591;28;20474;-73
2022/04/11 12:59:51;;;;;;;2.43;1.83;;;20.90;35.40;;;;;;5010342;28;20436;-73